createdAt,value
2023-02-16T00:00:45.431Z,95744.19
2023-02-16T00:03:22.518Z,95752.38
2023-02-16T00:05:50.798Z,95746.41
2023-02-16T00:08:17.540Z,95742.31
2023-02-16T00:11:05.688Z,95736.94
2023-02-16T00:13:45.478Z,95727.06
2023-02-16T00:16:21.270Z,95723.00
2023-02-16T00:18:48.667Z,95721.91
2023-02-16T00:21:16.384Z,95728.41
2023-02-16T00:23:43.204Z,95730.75
2023-02-16T00:26:21.764Z,95735.03
2023-02-16T00:28:54.777Z,95734.50
2023-02-16T00:31:27.272Z,95740.38
2023-02-16T00:33:55.272Z,95738.53
2023-02-16T00:36:22.415Z,95743.94
2023-02-16T00:38:50.159Z,95750.50
2023-02-16T00:41:40.176Z,95759.31
2023-02-16T00:44:16.661Z,95730.66
2023-02-16T00:46:45.119Z,95739.34
2023-02-16T00:49:17.137Z,95740.34
2023-02-16T00:51:44.597Z,95744.84
2023-02-16T00:54:11.564Z,95745.47
2023-02-16T00:56:39.972Z,95703.19
2023-02-16T00:59:11.789Z,95693.13
2023-02-16T01:01:39.098Z,95691.72
2023-02-16T01:04:08.424Z,95676.72
2023-02-16T01:06:54.137Z,95669.41
2023-02-16T01:09:39.933Z,95675.38
2023-02-16T01:12:14.153Z,95697.72
2023-02-16T01:14:40.875Z,95704.16
2023-02-16T01:17:07.657Z,95689.16
2023-02-16T01:19:34.478Z,95682.28
2023-02-16T01:22:01.313Z,95664.53
2023-02-16T01:24:28.630Z,95668.00
2023-02-16T01:26:55.560Z,95669.88
2023-02-16T01:29:22.531Z,95682.84
2023-02-16T01:31:50.161Z,95672.31
2023-02-16T01:34:17.572Z,95683.38
2023-02-16T01:36:47.231Z,95682.81
2023-02-16T01:39:18.695Z,95673.47
2023-02-16T01:42:12.139Z,95658.03
2023-02-16T01:44:59.013Z,95649.16
2023-02-16T01:47:28.826Z,95658.22
2023-02-16T01:49:55.949Z,95661.28
2023-02-16T01:52:33.109Z,95654.06
2023-02-16T01:55:37.859Z,95654.00
2023-02-16T01:58:32.784Z,95647.47
2023-02-16T02:01:00.225Z,95652.25
2023-02-16T02:03:49.752Z,95643.50
2023-02-16T02:06:20.103Z,95655.84
2023-02-16T02:09:03.306Z,95651.59
2023-02-16T02:11:54.552Z,95655.13
2023-02-16T02:14:33.188Z,95662.31
2023-02-16T02:17:05.365Z,95674.03
2023-02-16T02:19:56.408Z,95661.53
2023-02-16T02:23:02.036Z,95652.44
2023-02-16T02:25:50.761Z,95649.53
2023-02-16T02:28:36.671Z,95660.16
2023-02-16T02:31:18.937Z,95679.97
2023-02-16T02:34:12.918Z,95679.31
2023-02-16T02:36:44.550Z,95681.38
2023-02-16T02:39:40.781Z,95664.47
2023-02-16T02:42:07.577Z,95669.50
2023-02-16T02:45:02.857Z,95658.31
2023-02-16T02:47:47.940Z,95674.53
2023-02-16T02:51:11.065Z,95684.59
2023-02-16T02:54:14.846Z,95685.50
2023-02-16T02:57:18.104Z,95695.91
2023-02-16T03:00:29.883Z,95692.41
2023-02-16T03:03:09.052Z,95698.28
2023-02-16T03:05:38.938Z,95678.41
2023-02-16T03:08:14.631Z,95684.06
2023-02-16T03:11:05.773Z,95679.84
2023-02-16T03:13:40.704Z,95685.13
2023-02-16T03:16:32.148Z,95670.88
2023-02-16T03:19:18.309Z,95686.84
2023-02-16T03:22:04.682Z,95688.41
2023-02-16T03:24:51.812Z,95662.53
2023-02-16T03:27:42.570Z,95670.06
2023-02-16T03:30:11.567Z,95652.03
2023-02-16T03:32:39.305Z,95628.81
2023-02-16T03:35:07.089Z,95645.97
2023-02-16T03:37:34.465Z,95651.16
2023-02-16T03:40:20.065Z,95646.41
2023-02-16T03:42:51.549Z,95676.50
2023-02-16T03:45:20.346Z,95690.03
2023-02-16T03:47:47.472Z,95691.56
2023-02-16T03:50:14.381Z,95693.47
2023-02-16T03:52:41.727Z,95674.44
2023-02-16T03:55:09.054Z,95668.44
2023-02-16T03:57:35.807Z,95661.13
2023-02-16T04:00:02.770Z,95661.41
2023-02-16T04:02:39.803Z,95660.03
2023-02-16T04:05:07.139Z,95658.44
2023-02-16T04:07:33.957Z,95673.66
2023-02-16T04:10:00.659Z,95677.38
2023-02-16T04:12:36.316Z,95675.34
2023-02-16T04:15:12.208Z,95671.41
2023-02-16T04:17:38.988Z,95666.13
2023-02-16T04:20:07.307Z,95675.94
2023-02-16T04:22:34.244Z,95674.25
2023-02-16T04:25:01.553Z,95647.56
2023-02-16T04:27:28.465Z,95651.91
2023-02-16T04:29:55.632Z,95689.53
2023-02-16T04:32:22.702Z,95692.81
2023-02-16T04:34:49.424Z,95713.47
2023-02-16T04:37:16.651Z,95707.88
2023-02-16T04:39:43.397Z,95712.34
2023-02-16T04:42:10.179Z,95706.66
2023-02-16T04:44:37.322Z,95703.53
2023-02-16T04:47:04.389Z,95715.84
2023-02-16T04:49:31.519Z,95694.41
2023-02-16T04:51:58.304Z,95698.47
2023-02-16T04:54:25.076Z,95701.44
2023-02-16T04:56:51.807Z,95707.34
2023-02-16T04:59:18.559Z,95707.94
2023-02-16T05:01:45.802Z,95705.41
2023-02-16T05:04:12.881Z,95704.44
2023-02-16T05:06:39.677Z,95687.84
2023-02-16T05:09:06.995Z,95673.84
2023-02-16T05:11:52.325Z,95669.28
2023-02-16T05:14:43.150Z,95670.63
2023-02-16T05:17:18.455Z,95683.56
2023-02-16T05:19:47.506Z,95670.81
2023-02-16T05:22:15.694Z,95660.09
2023-02-16T05:24:43.381Z,95672.78
2023-02-16T05:27:14.410Z,95658.78
2023-02-16T05:29:41.541Z,95662.56
2023-02-16T05:32:08.542Z,95678.38
2023-02-16T05:34:35.360Z,95681.81
2023-02-16T05:37:02.359Z,95682.91
2023-02-16T05:39:29.282Z,95675.13
2023-02-16T05:41:56.658Z,95676.72
2023-02-16T05:44:23.658Z,95672.84
2023-02-16T05:46:50.349Z,95675.19
2023-02-16T05:49:18.666Z,95685.72
2023-02-16T05:51:45.956Z,95672.31
2023-02-16T05:54:17.458Z,95674.13
2023-02-16T05:56:49.796Z,95680.81
2023-02-16T05:59:17.144Z,95684.91
2023-02-16T06:01:48.659Z,95692.84
2023-02-16T06:04:18.055Z,95686.84
2023-02-16T06:06:45.561Z,95694.34
2023-02-16T06:09:12.854Z,95692.81
2023-02-16T06:11:39.689Z,95686.41
2023-02-16T06:14:09.861Z,95692.94
2023-02-16T06:16:39.136Z,95703.41
2023-02-16T06:19:06.772Z,95711.34
2023-02-16T06:21:34.261Z,95705.19
2023-02-16T06:24:01.410Z,95691.25
2023-02-16T06:26:28.955Z,95710.38
2023-02-16T06:28:56.097Z,95707.28
2023-02-16T06:31:25.106Z,95702.41
2023-02-16T06:33:52.841Z,95701.66
2023-02-16T06:36:20.909Z,95699.13
2023-02-16T06:38:48.122Z,95705.63
2023-02-16T06:41:31.309Z,95719.41
2023-02-16T06:44:03.228Z,95740.38
2023-02-16T06:46:30.002Z,95735.19
2023-02-16T06:48:57.028Z,95730.38
2023-02-16T06:51:23.897Z,95741.53
2023-02-16T06:53:50.823Z,95747.84
2023-02-16T06:56:18.024Z,95741.38
2023-02-16T06:58:44.740Z,95745.38
2023-02-16T07:01:12.321Z,95718.81
2023-02-16T07:03:39.966Z,95727.38
2023-02-16T07:06:06.938Z,95718.16
2023-02-16T07:08:35.662Z,95726.78
2023-02-16T07:11:03.037Z,95736.88
2023-02-16T07:13:29.872Z,95749.16
2023-02-16T07:15:56.745Z,95749.41
2023-02-16T07:18:23.928Z,95744.94
2023-02-16T07:20:50.988Z,95745.72
2023-02-16T07:23:18.112Z,95743.94
2023-02-16T07:25:44.885Z,95743.25
2023-02-16T07:28:11.597Z,95746.25
2023-02-16T07:30:38.657Z,95745.22
2023-02-16T07:33:08.975Z,95753.56
2023-02-16T07:35:37.154Z,95767.50
2023-02-16T07:38:04.920Z,95742.00
2023-02-16T07:40:32.277Z,95755.50
2023-02-16T07:43:04.898Z,95760.47
2023-02-16T07:45:35.142Z,95775.81
2023-02-16T07:48:02.593Z,95774.78
2023-02-16T07:50:29.322Z,95762.13
2023-02-16T07:52:56.243Z,95776.41
2023-02-16T07:55:22.979Z,95774.38
2023-02-16T07:57:54.611Z,95778.78
2023-02-16T08:00:21.762Z,95798.09
2023-02-16T08:02:49.365Z,95779.53
2023-02-16T08:05:16.796Z,95801.50
2023-02-16T08:07:46.447Z,95795.19
2023-02-16T08:10:14.213Z,95783.75
2023-02-16T08:12:41.245Z,95801.53
2023-02-16T08:15:09.650Z,95802.56
2023-02-16T08:17:36.686Z,95773.69
2023-02-16T08:20:06.062Z,95790.03
2023-02-16T08:22:32.868Z,95791.41
2023-02-16T08:24:59.944Z,95799.03
2023-02-16T08:27:26.987Z,95786.00
2023-02-16T08:29:54.215Z,95773.78
2023-02-16T08:32:21.446Z,95804.16
2023-02-16T08:34:48.250Z,95822.97
2023-02-16T08:37:15.015Z,95819.22
2023-02-16T08:39:42.279Z,95822.88
2023-02-16T08:42:12.197Z,95820.66
2023-02-16T08:44:39.899Z,95818.16
2023-02-16T08:47:06.987Z,95808.72
2023-02-16T08:49:34.026Z,95805.59
2023-02-16T08:52:01.593Z,95816.28
2023-02-16T08:54:30.685Z,95838.78
2023-02-16T08:56:59.212Z,95822.16
2023-02-16T08:59:28.483Z,95834.72
2023-02-16T09:01:57.034Z,95841.81
2023-02-16T09:04:25.636Z,95826.06
2023-02-16T09:06:53.421Z,95850.09
2023-02-16T09:09:20.937Z,95850.19
2023-02-16T09:11:48.413Z,95827.53
2023-02-16T09:14:19.221Z,95838.13
2023-02-16T09:16:46.468Z,95847.19
2023-02-16T09:19:15.996Z,95849.31
2023-02-16T09:21:43.741Z,95888.91
2023-02-16T09:24:11.628Z,95883.94
2023-02-16T09:26:42.588Z,95914.63
2023-02-16T09:29:12.477Z,95924.72
2023-02-16T09:31:39.853Z,95927.94
2023-02-16T09:34:16.120Z,95908.53
2023-02-16T09:36:43.954Z,95925.78
2023-02-16T09:39:10.986Z,95905.88
2023-02-16T09:41:49.501Z,95917.66
2023-02-16T09:44:25.803Z,95915.56
2023-02-16T09:46:57.382Z,95925.91
2023-02-16T09:49:38.844Z,95929.81
2023-02-16T09:52:08.626Z,95929.56
2023-02-16T09:54:45.493Z,95914.91
2023-02-16T09:57:37.968Z,95897.66
2023-02-16T10:00:11.823Z,95912.75
2023-02-16T10:03:00.467Z,95918.09
2023-02-16T10:05:41.444Z,95922.47
2023-02-16T10:08:14.535Z,95919.47
2023-02-16T10:11:07.614Z,95911.31
2023-02-16T10:13:49.688Z,95920.47
2023-02-16T10:16:22.823Z,95920.19
2023-02-16T10:18:53.569Z,95929.84
2023-02-16T10:21:27.662Z,95912.63
2023-02-16T10:24:05.371Z,95915.28
2023-02-16T10:26:38.821Z,95921.59
2023-02-16T10:29:14.604Z,95940.19
2023-02-16T10:32:00.470Z,95922.31
2023-02-16T10:34:47.295Z,95914.72
2023-02-16T10:37:35.385Z,95929.41
2023-02-16T10:40:29.567Z,95924.97
2023-02-16T10:43:05.545Z,95931.06
2023-02-16T10:45:53.018Z,95933.16
2023-02-16T10:48:21.846Z,95937.41
2023-02-16T10:51:03.701Z,95918.38
2023-02-16T10:53:44.090Z,95923.06
2023-02-16T10:56:35.957Z,95940.03
2023-02-16T10:59:07.931Z,95940.94
2023-02-16T11:01:42.742Z,95928.16
2023-02-16T11:04:30.865Z,95930.34
2023-02-16T11:07:08.562Z,95933.06
2023-02-16T11:09:36.870Z,95927.16
2023-02-16T11:12:24.071Z,95933.84
2023-02-16T11:14:54.868Z,95927.94
2023-02-16T11:17:23.926Z,95926.13
2023-02-16T11:20:02.097Z,95901.50
2023-02-16T11:22:32.156Z,95916.53
2023-02-16T11:25:24.258Z,95909.16
2023-02-16T11:27:53.036Z,95911.88
2023-02-16T11:30:32.230Z,95916.25
2023-02-16T11:33:02.454Z,95903.16
2023-02-16T11:35:33.038Z,95910.63
2023-02-16T11:38:00.310Z,95911.53
2023-02-16T11:40:31.064Z,95903.28
2023-02-16T11:43:01.016Z,95899.31
2023-02-16T11:45:29.677Z,95876.03
2023-02-16T11:48:12.315Z,95882.81
2023-02-16T11:50:54.730Z,95886.53
2023-02-16T11:53:31.398Z,95884.03
2023-02-16T11:56:27.422Z,95863.13
2023-02-16T11:59:20.882Z,95865.06
2023-02-16T12:02:28.994Z,95857.25
2023-02-16T12:05:07.575Z,95868.31
2023-02-16T12:07:53.695Z,95834.91
2023-02-16T12:10:26.179Z,95858.38
2023-02-16T12:13:26.471Z,95855.53
2023-02-16T12:16:12.737Z,95844.59
2023-02-16T12:18:55.051Z,95846.25
2023-02-16T12:21:36.618Z,95830.72
2023-02-16T12:24:09.724Z,95850.16
2023-02-16T12:26:58.758Z,95839.63
2023-02-16T12:29:39.336Z,95845.16
2023-02-16T12:32:30.618Z,95849.53
2023-02-16T12:35:28.937Z,95837.72
2023-02-16T12:38:19.404Z,95835.84
2023-02-16T12:40:50.100Z,95842.31
2023-02-16T12:43:31.687Z,95828.41
2023-02-16T12:46:04.631Z,95831.81
2023-02-16T12:48:54.233Z,95815.25
2023-02-16T12:51:26.130Z,95836.34
2023-02-16T12:54:02.097Z,95814.66
2023-02-16T12:56:39.138Z,95826.19
2023-02-16T12:59:33.453Z,95823.53
2023-02-16T13:02:04.993Z,95804.81
2023-02-16T13:04:55.937Z,95802.25
2023-02-16T13:07:44.815Z,95799.81
2023-02-16T13:10:11.456Z,95794.81
2023-02-16T13:12:52.243Z,95802.50
2023-02-16T13:15:37.097Z,95798.88
2023-02-16T13:18:26.171Z,95791.50
2023-02-16T13:21:00.168Z,95795.25
2023-02-16T13:24:01.271Z,95782.31
2023-02-16T13:26:47.347Z,95794.09
2023-02-16T13:29:40.408Z,95790.84
2023-02-16T13:32:22.699Z,95781.47
2023-02-16T13:34:55.777Z,95783.06
2023-02-16T13:37:27.406Z,95785.88
2023-02-16T13:40:18.826Z,95791.06
2023-02-16T13:43:03.810Z,95782.34
2023-02-16T13:45:40.945Z,95785.94
2023-02-16T13:48:29.642Z,95775.22
2023-02-16T13:51:13.924Z,95777.69
2023-02-16T13:53:43.230Z,95782.91
2023-02-16T13:56:15.003Z,95776.06
2023-02-16T13:58:41.762Z,95793.78
2023-02-16T14:01:39.354Z,95786.22
2023-02-16T14:04:13.061Z,95789.38
2023-02-16T14:06:42.921Z,95787.63
2023-02-16T14:09:12.501Z,95793.91
2023-02-16T14:11:54.772Z,95799.31
2023-02-16T14:14:55.291Z,95802.22
2023-02-16T14:17:22.459Z,95791.84
2023-02-16T14:19:58.482Z,95785.59
2023-02-16T14:22:43.577Z,95803.47
2023-02-16T14:25:22.582Z,95797.28
2023-02-16T14:28:02.795Z,95789.03
2023-02-16T14:30:35.650Z,95785.34
2023-02-16T14:33:43.226Z,95792.13
2023-02-16T14:36:16.855Z,95790.09
2023-02-16T14:38:47.593Z,95788.69
2023-02-16T14:41:25.831Z,95791.63
2023-02-16T14:44:04.924Z,95782.66
2023-02-16T14:46:39.059Z,95777.78
2023-02-16T14:49:39.915Z,95771.63
2023-02-16T14:52:35.923Z,95782.47
2023-02-16T14:55:18.662Z,95773.75
2023-02-16T14:57:45.860Z,95777.28
2023-02-16T15:00:42.066Z,95772.06
2023-02-16T15:03:24.328Z,95773.13
2023-02-16T15:06:00.203Z,95769.38
2023-02-16T15:08:36.969Z,95768.69
2023-02-16T15:11:20.370Z,95753.31
2023-02-16T15:13:51.787Z,95771.47
2023-02-16T15:16:20.694Z,95764.22
2023-02-16T15:18:52.107Z,95767.03
2023-02-16T15:21:28.348Z,95759.09
2023-02-16T15:23:59.980Z,95767.94
2023-02-16T15:26:35.644Z,95755.53
2023-02-16T15:29:27.078Z,95763.34
2023-02-16T15:31:54.519Z,95775.81
2023-02-16T15:34:34.891Z,95755.69
2023-02-16T15:37:19.636Z,95747.09
2023-02-16T15:40:02.987Z,95749.09
2023-02-16T15:42:34.183Z,95736.22
2023-02-16T15:45:00.929Z,95741.81
2023-02-16T15:47:27.706Z,95738.16
2023-02-16T15:49:56.062Z,95736.25
2023-02-16T15:52:33.742Z,95731.47
2023-02-16T15:55:03.673Z,95744.91
2023-02-16T15:57:36.100Z,95728.84
2023-02-16T16:00:15.898Z,95730.72
2023-02-16T16:02:48.778Z,95722.91
2023-02-16T16:05:33.396Z,95718.28
2023-02-16T16:08:01.159Z,95711.41
2023-02-16T16:10:35.619Z,95722.56
2023-02-16T16:13:06.713Z,95717.69
2023-02-16T16:15:41.720Z,95705.22
2023-02-16T16:18:39.868Z,95730.09
2023-02-16T16:21:15.769Z,95722.66
2023-02-16T16:23:58.121Z,95729.31
2023-02-16T16:26:26.526Z,95720.03
2023-02-16T16:28:54.931Z,95715.19
2023-02-16T16:31:21.716Z,95720.09
2023-02-16T16:34:07.723Z,95728.19
2023-02-16T16:36:53.761Z,95732.34
2023-02-16T16:39:48.541Z,95731.16
2023-02-16T16:42:16.941Z,95732.56
2023-02-16T16:45:06.972Z,95736.81
2023-02-16T16:47:40.361Z,95726.94
2023-02-16T16:50:10.512Z,95737.88
2023-02-16T16:52:45.898Z,95731.06
2023-02-16T16:55:27.700Z,95746.13
2023-02-16T16:58:00.584Z,95725.84
2023-02-16T17:00:31.050Z,95747.47
2023-02-16T17:02:58.328Z,95740.13
2023-02-16T17:05:25.526Z,95746.19
2023-02-16T17:07:52.829Z,95740.22
2023-02-16T17:10:21.617Z,95743.66
2023-02-16T17:12:52.931Z,95746.59
2023-02-16T17:15:39.412Z,95739.97
2023-02-16T17:18:07.500Z,95741.53
2023-02-16T17:20:34.936Z,95735.28
2023-02-16T17:23:04.903Z,95741.84
2023-02-16T17:25:35.233Z,95739.94
2023-02-16T17:28:03.418Z,95747.22
2023-02-16T17:30:31.330Z,95736.28
2023-02-16T17:32:58.507Z,95733.91
2023-02-16T17:35:25.706Z,95736.69
2023-02-16T17:37:52.441Z,95745.03
2023-02-16T17:40:21.834Z,95729.38
2023-02-16T17:42:50.028Z,95718.78
2023-02-16T17:45:20.137Z,95741.56
2023-02-16T17:47:51.307Z,95739.28
2023-02-16T17:50:19.705Z,95741.34
2023-02-16T17:52:46.652Z,95742.81
2023-02-16T17:55:13.656Z,95744.03
2023-02-16T17:57:40.856Z,95746.13
2023-02-16T18:00:09.796Z,95753.38
2023-02-16T18:02:36.532Z,95755.22
2023-02-16T18:05:03.705Z,95736.72
2023-02-16T18:07:30.666Z,95739.75
2023-02-16T18:09:57.825Z,95744.31
2023-02-16T18:12:26.237Z,95740.72
2023-02-16T18:14:54.518Z,95741.31
2023-02-16T18:17:21.448Z,95736.72
2023-02-16T18:19:48.182Z,95748.31
2023-02-16T18:22:15.485Z,95749.22
2023-02-16T18:24:44.482Z,95748.56
2023-02-16T18:27:11.223Z,95749.38
2023-02-16T18:29:38.024Z,95755.06
2023-02-16T18:32:05.640Z,95753.78
2023-02-16T18:34:33.487Z,95744.94
2023-02-16T18:37:01.116Z,95741.38
2023-02-16T18:39:27.834Z,95755.91
2023-02-16T18:41:54.872Z,95758.75
2023-02-16T18:44:21.712Z,95753.44
2023-02-16T18:46:48.438Z,95740.72
2023-02-16T18:49:15.887Z,95733.78
2023-02-16T18:51:42.876Z,95738.38
2023-02-16T18:54:09.944Z,95741.44
2023-02-16T18:56:37.853Z,95734.81
2023-02-16T18:59:04.695Z,95743.34
2023-02-16T19:01:33.330Z,95765.97
2023-02-16T19:04:02.011Z,95761.75
2023-02-16T19:06:29.029Z,95748.94
2023-02-16T19:08:58.419Z,95728.63
2023-02-16T19:11:28.154Z,95741.28
2023-02-16T19:13:55.283Z,95721.63
2023-02-16T19:16:22.212Z,95730.25
2023-02-16T19:18:49.556Z,95729.44
2023-02-16T19:21:16.332Z,95722.59
2023-02-16T19:23:43.582Z,95726.06
2023-02-16T19:26:14.661Z,95734.78
2023-02-16T19:28:42.757Z,95724.53
2023-02-16T19:31:16.998Z,95726.25
2023-02-16T19:33:44.111Z,95731.25
2023-02-16T19:36:11.800Z,95728.41
2023-02-16T19:38:39.400Z,95745.72
2023-02-16T19:41:40.597Z,95731.28
2023-02-16T19:44:07.519Z,95736.13
2023-02-16T19:46:35.023Z,95738.88
2023-02-16T19:49:02.386Z,95742.13
2023-02-16T19:51:29.933Z,95754.88
2023-02-16T19:53:57.145Z,95747.03
2023-02-16T19:56:25.972Z,95753.00
2023-02-16T19:58:53.210Z,95754.28
2023-02-16T20:01:23.367Z,95747.44
2023-02-16T20:03:51.812Z,95747.19
2023-02-16T20:06:31.170Z,95748.81
2023-02-16T20:09:00.261Z,95748.28
2023-02-16T20:11:29.184Z,95745.00
2023-02-16T20:13:57.307Z,95743.91
2023-02-16T20:16:25.011Z,95736.38
2023-02-16T20:18:51.884Z,95724.75
2023-02-16T20:21:23.864Z,95723.44
2023-02-16T20:23:53.273Z,95725.16
2023-02-16T20:26:26.311Z,95719.75
2023-02-16T20:28:54.024Z,95705.53
2023-02-16T20:31:29.719Z,95729.91
2023-02-16T20:33:57.419Z,95716.03
2023-02-16T20:36:24.246Z,95720.59
2023-02-16T20:38:51.772Z,95725.72
2023-02-16T20:41:21.700Z,95711.81
2023-02-16T20:43:49.245Z,95701.09
2023-02-16T20:46:17.160Z,95709.88
2023-02-16T20:48:44.610Z,95710.16
2023-02-16T20:51:13.741Z,95707.44
2023-02-16T20:53:41.121Z,95704.44
2023-02-16T20:56:20.595Z,95701.22
2023-02-16T20:58:50.537Z,95708.09
2023-02-16T21:01:27.804Z,95694.50
2023-02-16T21:03:56.267Z,95699.50
2023-02-16T21:06:23.948Z,95699.56
2023-02-16T21:08:51.084Z,95710.09
2023-02-16T21:11:18.472Z,95700.56
2023-02-16T21:13:45.612Z,95696.94
2023-02-16T21:16:14.329Z,95692.66
2023-02-16T21:18:41.661Z,95688.34
2023-02-16T21:21:10.341Z,95693.78
2023-02-16T21:23:37.512Z,95690.28
2023-02-16T21:26:05.930Z,95682.19
2023-02-16T21:28:33.392Z,95688.38
2023-02-16T21:31:06.421Z,95681.16
2023-02-16T21:33:33.499Z,95669.72
2023-02-16T21:36:09.151Z,95667.03
2023-02-16T21:38:37.468Z,95692.50
2023-02-16T21:41:24.383Z,95676.25
2023-02-16T21:44:03.325Z,95678.00
2023-02-16T21:46:41.905Z,95677.06
2023-02-16T21:49:19.503Z,95682.66
2023-02-16T21:51:48.195Z,95665.59
2023-02-16T21:54:38.579Z,95664.16
2023-02-16T21:57:05.301Z,95675.44
2023-02-16T21:59:32.085Z,95672.19
2023-02-16T22:01:59.479Z,95658.78
2023-02-16T22:04:27.046Z,95668.19
2023-02-16T22:06:54.808Z,95673.31
2023-02-16T22:09:23.338Z,95675.25
2023-02-16T22:11:51.714Z,95678.63
2023-02-16T22:14:19.021Z,95676.06
2023-02-16T22:16:47.370Z,95671.88
2023-02-16T22:19:17.119Z,95675.66
2023-02-16T22:21:45.354Z,95673.53
2023-02-16T22:24:14.707Z,95680.78
2023-02-16T22:26:42.153Z,95675.03
2023-02-16T22:29:09.607Z,95660.38
2023-02-16T22:31:38.045Z,95687.00
2023-02-16T22:34:08.437Z,95665.16
2023-02-16T22:36:36.960Z,95681.94
2023-02-16T22:39:04.785Z,95672.78
2023-02-16T22:41:33.646Z,95678.28
2023-02-16T22:44:00.743Z,95681.28
2023-02-16T22:46:29.687Z,95684.75
2023-02-16T22:49:00.568Z,95676.41
2023-02-16T22:51:29.871Z,95679.31
2023-02-16T22:54:01.392Z,95689.69
2023-02-16T22:56:29.859Z,95680.69
2023-02-16T22:58:57.926Z,95682.53
2023-02-16T23:01:27.520Z,95673.03
2023-02-16T23:03:57.758Z,95681.59
2023-02-16T23:06:31.820Z,95681.91
2023-02-16T23:09:05.408Z,95679.50
2023-02-16T23:11:33.620Z,95688.41
2023-02-16T23:14:00.455Z,95665.38
2023-02-16T23:16:28.852Z,95662.94
2023-02-16T23:18:57.639Z,95669.34
2023-02-16T23:21:28.025Z,95670.78
2023-02-16T23:23:55.512Z,95664.31
2023-02-16T23:26:24.202Z,95671.38
2023-02-16T23:28:53.351Z,95661.16
2023-02-16T23:31:20.915Z,95655.16
2023-02-16T23:33:48.435Z,95665.56
2023-02-16T23:36:15.758Z,95677.00
2023-02-16T23:38:42.875Z,95678.56
2023-02-16T23:41:12.916Z,95673.59
2023-02-16T23:43:40.200Z,95671.16
2023-02-16T23:46:08.391Z,95670.84
2023-02-16T23:48:35.853Z,95679.19
2023-02-16T23:51:02.718Z,95684.72
2023-02-16T23:53:29.431Z,95678.88
2023-02-16T23:55:58.239Z,95668.28
2023-02-16T23:58:36.210Z,95685.84
